SBOSBO TFS / GCTS
Speedbird OnlineSpeedbird Online TFS / GCTS

Tenerife South Airport
08:50 22°C

Location Tenerife, Spain
Latitude: 28.044500351
Longitude: -16.5725002289
Web Airport Website | Wikipedia
Altitude 64 Meter / 209 Feet
Distance 2,958 KM / 1,838 Miles
from London.
Time Zone UTC +1 hours (Atlantic/Canary)
Codes IATA: TFS
ICAO: GCTS
Currency £1 equals EUR 1.15
Runways
RunwayLength (m)Surface
073200Asphalt
253200Asphalt
Radio
TypeDescriptionFrequency
APPAPP120.3
ATISATIS118.675
DLV121.75
GNDGND121.9
TWRTWR119
Live ATC
METAR GCTS 060730Z 32006KT CAVOK 21/18 Q1018 NOSIG
TAF TAF GCTS 060200Z 0603/0703 05014KT CAVOK TX27/0614Z TN20/0606Z TEMPO 0603/0609 05004KT BECMG 0616/0618 28008KT
Weather As Of 06 Oct 2022 08:50
Description Clear sky
Wind 11 km/h from North-West (320°)
Cloud Cover 0%
Precipitation Rain: none, Snow: none
Sunrise 08:01
Sunset 19:47
Lounges Sala Montana Roja , Main Terminal
Rotations During the last 90 days there were
69 flights from LGW
55 flights from LHR
1 flights from FAO
70 flights to LGW
54 flights to LHR


© 2017-2022 Speedbird Online